Decoded Metar for KTWF (TWIN FALLS in ID, USA) (IATA:TWF) | Meteo·Mobile Aviation Weather
aviador You're here:

KTWF Decoded Metar

TWIN FALLS in ID, USA
Report Time2018-11-18 09:53:00
UTC Time2018-11-18 10:36:05
Flight Rules vfr VFR
Wind180° at 09 kt
W.Decomp.*RWY 12: 6.5 kt HW 6.3 kt RCW
RWY 25: 0.6 kt HW 9 kt LCW
W.Rank180° ranks 2
Current wind is below 180° avg. (9.4)
Visibility9999 m
Phenomena:N/A
Clouds:N/A
Expected CloudBase > 1,200 ft AGL from Temp-Dew spread
CeilingNone
Temp-4°C (ISA -11)
Dew Point-7°C (80% RH)
AAT-10.0°C
QNH1026 hPa
Density Alt2,464 ft
Elevation4,154 ft
Report Wrong Elevation
Raw Report
KTWF 180953Z AUTO 18009KT 10SM CLR M04/M07 A3029 RMK AO2 SLP262
T10391067=

Extra information for KTWF:More info

Metar Taf Metar & Taf Last 4 Metars F.Rules Stats Wind Profile Meteogram Temp Stats Airport Information Weather charts Add Link Nearby VenuesMetar ALERT Operation Metar Decoded Social comments

AIRNAV info for KTWF